createdAt,value
2023-04-01T00:00:50.369Z,7.34
2023-04-01T00:01:50.534Z,7.41
2023-04-01T00:02:50.806Z,7.24
2023-04-01T00:03:51.154Z,7.11
2023-04-01T00:04:51.022Z,7.05
2023-04-01T00:05:51.196Z,6.98
2023-04-01T00:06:51.463Z,6.97
2023-04-01T00:07:51.576Z,6.96
2023-04-01T00:08:51.776Z,6.90
2023-04-01T00:09:51.936Z,6.86
2023-04-01T00:10:52.089Z,6.89
2023-04-01T00:11:52.278Z,6.99
2023-04-01T00:12:52.440Z,7.13
2023-04-01T00:13:52.577Z,7.24
2023-04-01T00:14:52.698Z,7.30
2023-04-01T00:15:52.968Z,7.30
2023-04-01T00:16:53.101Z,7.39
2023-04-01T00:17:53.176Z,7.37
2023-04-01T00:18:53.221Z,7.43
2023-04-01T00:19:53.322Z,7.51
2023-04-01T00:20:53.491Z,7.55
2023-04-01T00:21:53.670Z,7.59
2023-04-01T00:22:53.770Z,7.55
2023-04-01T00:23:53.882Z,7.56
2023-04-01T00:24:53.988Z,7.60
2023-04-01T00:25:54.111Z,7.59
2023-04-01T00:26:54.234Z,7.65
2023-04-01T00:27:54.388Z,7.65
2023-04-01T00:28:54.535Z,7.63
2023-04-01T00:29:54.681Z,7.63
2023-04-01T00:30:54.825Z,7.70
2023-04-01T00:31:55.001Z,7.75
2023-04-01T00:32:55.186Z,7.78
2023-04-01T00:33:55.261Z,7.77
2023-04-01T00:34:55.426Z,7.83
2023-04-01T00:35:55.626Z,7.81
2023-04-01T00:36:55.666Z,7.69
2023-04-01T00:37:55.799Z,7.62
2023-04-01T00:38:55.954Z,7.62
2023-04-01T00:39:56.091Z,7.63
2023-04-01T00:40:56.326Z,7.69
2023-04-01T00:41:56.307Z,7.71
2023-04-01T00:42:56.413Z,7.76
2023-04-01T00:43:56.578Z,7.70
2023-04-01T00:44:56.780Z,7.59
2023-04-01T00:45:56.944Z,7.48
2023-04-01T00:46:57.225Z,7.27
2023-04-01T00:47:57.359Z,7.04
2023-04-01T00:48:57.432Z,6.91
2023-04-01T00:49:57.590Z,6.88
2023-04-01T00:50:57.781Z,6.82
2023-04-01T00:51:57.953Z,6.76
2023-04-01T00:52:58.158Z,6.72
2023-04-01T00:53:58.341Z,6.61
2023-04-01T00:54:58.509Z,6.65
2023-04-01T00:55:58.668Z,6.63
2023-04-01T00:56:58.857Z,6.67
2023-04-01T00:57:58.947Z,6.74
2023-04-01T00:58:59.083Z,6.72
2023-04-01T00:59:59.276Z,6.61
2023-04-01T01:00:59.507Z,6.62
2023-04-01T01:01:59.681Z,6.64
2023-04-01T01:02:59.833Z,6.63
2023-04-01T01:03:59.973Z,6.54
2023-04-01T01:05:00.618Z,6.50
2023-04-01T01:06:00.343Z,6.63
2023-04-01T01:07:00.529Z,6.73
2023-04-01T01:08:00.704Z,6.76
2023-04-01T01:09:00.859Z,6.73
2023-04-01T01:10:01.013Z,6.77
2023-04-01T01:11:01.204Z,6.79
2023-04-01T01:12:01.369Z,6.80
2023-04-01T01:13:01.529Z,6.87
2023-04-01T01:14:01.672Z,6.93
2023-04-01T01:15:01.837Z,6.94
2023-04-01T01:16:01.993Z,6.97
2023-04-01T01:17:02.274Z,7.03
2023-04-01T01:18:02.344Z,7.14
2023-04-01T01:19:02.378Z,7.17
2023-04-01T01:20:02.946Z,7.13
2023-04-01T01:21:02.678Z,7.03
2023-04-01T01:22:02.851Z,7.03
2023-04-01T01:23:03.019Z,7.10
2023-04-01T01:24:03.167Z,7.21
2023-04-01T01:25:03.284Z,7.30
2023-04-01T01:26:03.500Z,7.39
2023-04-01T01:27:03.605Z,7.43
2023-04-01T01:28:03.732Z,7.50
2023-04-01T01:29:03.867Z,7.57
2023-04-01T01:30:04.058Z,7.65
2023-04-01T01:31:04.166Z,7.71
2023-04-01T01:32:04.283Z,7.76
2023-04-01T01:33:04.435Z,7.79
2023-04-01T01:34:04.561Z,7.81
2023-04-01T01:35:04.695Z,7.81
2023-04-01T01:36:04.847Z,7.78
2023-04-01T01:37:04.984Z,7.81
2023-04-01T01:38:05.101Z,7.80
2023-04-01T01:39:05.179Z,7.65
2023-04-01T01:40:05.306Z,7.66
2023-04-01T01:41:05.396Z,7.58
2023-04-01T01:42:05.522Z,7.61
2023-04-01T01:43:05.602Z,7.64
2023-04-01T01:44:05.706Z,7.70
2023-04-01T01:45:05.888Z,7.68
2023-04-01T01:46:06.016Z,7.71
2023-04-01T01:47:06.167Z,7.80
2023-04-01T01:48:06.433Z,7.87
2023-04-01T01:49:06.464Z,7.78
2023-04-01T01:50:06.616Z,7.77
2023-04-01T01:51:06.778Z,7.82
2023-04-01T01:52:06.914Z,7.84
2023-04-01T01:53:07.039Z,7.78
2023-04-01T01:54:07.180Z,7.59
2023-04-01T01:55:07.314Z,7.55
2023-04-01T01:56:07.455Z,7.61
2023-04-01T01:57:07.610Z,7.63
2023-04-01T01:58:07.735Z,7.64
2023-04-01T01:59:07.878Z,7.67
2023-04-01T02:00:07.971Z,7.76
2023-04-01T02:01:08.156Z,7.85
2023-04-01T02:02:08.235Z,7.71
2023-04-01T02:03:08.403Z,7.60
2023-04-01T02:04:08.532Z,7.62
2023-04-01T02:05:08.645Z,7.64
2023-04-01T02:06:08.780Z,7.59
2023-04-01T02:07:08.917Z,7.60
2023-04-01T02:08:09.015Z,7.61
2023-04-01T02:09:09.117Z,7.70
2023-04-01T02:10:09.262Z,7.81
2023-04-01T02:11:09.416Z,7.85
2023-04-01T02:12:09.551Z,7.92
2023-04-01T02:13:09.682Z,7.87
2023-04-01T02:14:09.835Z,7.87
2023-04-01T02:15:09.985Z,7.90
2023-04-01T02:16:10.174Z,7.98
2023-04-01T02:17:10.242Z,8.04
2023-04-01T02:18:10.393Z,8.10
2023-04-01T02:19:10.481Z,8.15
2023-04-01T02:20:10.626Z,8.07
2023-04-01T02:21:10.730Z,8.00
2023-04-01T02:22:10.861Z,8.06
2023-04-01T02:23:10.980Z,8.12
2023-04-01T02:24:11.099Z,8.13
2023-04-01T02:25:11.244Z,8.18
2023-04-01T02:26:11.389Z,8.06
2023-04-01T02:27:11.520Z,8.05
2023-04-01T02:28:11.673Z,8.00
2023-04-01T02:29:11.795Z,8.03
2023-04-01T02:30:11.943Z,8.03
2023-04-01T02:31:12.105Z,8.05
2023-04-01T02:32:12.215Z,8.01
2023-04-01T02:33:12.391Z,8.05
2023-04-01T02:34:12.477Z,8.10
2023-04-01T02:35:12.636Z,8.13
2023-04-01T02:36:12.783Z,8.06
2023-04-01T02:37:12.907Z,8.02
2023-04-01T02:38:13.060Z,7.96
2023-04-01T02:39:13.184Z,8.02
2023-04-01T02:40:13.353Z,8.09
2023-04-01T02:41:13.463Z,8.12
2023-04-01T02:42:13.590Z,7.99
2023-04-01T02:43:13.795Z,7.80
2023-04-01T02:44:13.840Z,7.86
2023-04-01T02:45:13.960Z,7.93
2023-04-01T02:46:14.127Z,8.00
2023-04-01T02:47:14.191Z,8.07
2023-04-01T02:48:14.317Z,8.11
2023-04-01T02:49:14.461Z,8.09
2023-04-01T02:50:14.637Z,8.10
2023-04-01T02:51:15.554Z,8.00
2023-04-01T02:52:14.956Z,8.02
2023-04-01T02:53:15.104Z,7.98
2023-04-01T02:54:15.275Z,7.99
2023-04-01T02:55:15.513Z,8.00
2023-04-01T02:56:15.569Z,7.95
2023-04-01T02:57:15.759Z,7.86
2023-04-01T02:58:15.877Z,7.80
2023-04-01T02:59:16.012Z,7.82
2023-04-01T03:00:16.136Z,7.85
2023-04-01T03:01:16.314Z,7.83
2023-04-01T03:02:16.452Z,7.72
2023-04-01T03:03:16.601Z,7.76
2023-04-01T03:04:16.721Z,7.77
2023-04-01T03:05:16.908Z,7.77
2023-04-01T03:06:17.059Z,7.74
2023-04-01T03:07:17.171Z,7.70
2023-04-01T03:08:17.312Z,7.60
2023-04-01T03:09:17.437Z,7.63
2023-04-01T03:10:17.547Z,7.67
2023-04-01T03:11:17.701Z,7.57
2023-04-01T03:12:17.843Z,7.61
2023-04-01T03:13:17.961Z,7.65
2023-04-01T03:14:18.123Z,7.65
2023-04-01T03:15:18.275Z,7.58
2023-04-01T03:16:18.456Z,7.51
2023-04-01T03:17:18.548Z,7.54
2023-04-01T03:18:18.690Z,7.62
2023-04-01T03:19:18.824Z,7.66
2023-04-01T03:20:18.968Z,7.57
2023-04-01T03:21:19.113Z,7.62
2023-04-01T03:22:19.245Z,7.70
2023-04-01T03:23:19.395Z,7.74
2023-04-01T03:24:19.535Z,7.73
2023-04-01T03:25:19.742Z,7.76
2023-04-01T03:26:19.819Z,7.66
2023-04-01T03:27:19.967Z,7.53
2023-04-01T03:28:20.120Z,7.49
2023-04-01T03:29:20.267Z,7.47
2023-04-01T03:30:20.435Z,7.27
2023-04-01T03:31:22.382Z,7.32
2023-04-01T03:32:20.572Z,7.38
2023-04-01T03:33:20.660Z,7.43
2023-04-01T03:34:20.752Z,7.46
2023-04-01T03:35:20.846Z,7.47
2023-04-01T03:36:20.974Z,7.41
2023-04-01T03:37:21.026Z,7.29
2023-04-01T03:38:21.097Z,7.28
2023-04-01T03:39:21.168Z,7.38
2023-04-01T03:40:21.261Z,7.28
2023-04-01T03:41:21.347Z,7.30
2023-04-01T03:42:21.432Z,7.30
2023-04-01T03:43:21.506Z,7.42
2023-04-01T03:44:21.595Z,7.35
2023-04-01T03:45:21.677Z,7.37
2023-04-01T03:46:21.837Z,7.43
2023-04-01T03:47:21.838Z,7.42
2023-04-01T03:48:21.914Z,7.31
2023-04-01T03:49:22.001Z,7.26
2023-04-01T03:50:22.091Z,7.29
2023-04-01T03:51:22.161Z,7.28
2023-04-01T03:52:22.331Z,7.34
2023-04-01T03:53:22.338Z,7.38
2023-04-01T03:54:22.442Z,7.39
2023-04-01T03:55:22.538Z,7.37
2023-04-01T03:56:22.611Z,7.39
2023-04-01T03:57:22.722Z,7.44
2023-04-01T03:58:22.782Z,7.41
2023-04-01T03:59:22.857Z,7.35
2023-04-01T04:00:22.948Z,7.36
2023-04-01T04:01:23.046Z,7.38
2023-04-01T04:02:23.176Z,7.48
2023-04-01T04:03:23.276Z,7.57
2023-04-01T04:04:23.312Z,7.62
2023-04-01T04:05:23.349Z,7.54
2023-04-01T04:06:23.434Z,7.38
2023-04-01T04:07:23.499Z,7.30
2023-04-01T04:08:23.585Z,7.39
2023-04-01T04:09:23.682Z,7.43
2023-04-01T04:10:23.757Z,7.38
2023-04-01T04:11:23.867Z,7.19
2023-04-01T04:12:23.928Z,7.23
2023-04-01T04:13:24.019Z,7.32
2023-04-01T04:14:24.118Z,7.35
2023-04-01T04:15:24.215Z,7.35
2023-04-01T04:16:24.372Z,7.34
2023-04-01T04:17:24.542Z,7.34
2023-04-01T04:18:24.643Z,7.24
2023-04-01T04:19:24.807Z,7.28
2023-04-01T04:20:24.930Z,7.23
2023-04-01T04:21:25.060Z,7.27
2023-04-01T04:22:25.215Z,7.18
2023-04-01T04:23:25.392Z,7.14
2023-04-01T04:24:25.563Z,7.14
2023-04-01T04:25:25.729Z,7.16
2023-04-01T04:26:25.849Z,7.17
2023-04-01T04:27:25.967Z,7.25
2023-04-01T04:28:26.065Z,7.31
2023-04-01T04:29:26.169Z,7.30
2023-04-01T04:30:26.372Z,7.26
2023-04-01T04:31:26.536Z,7.27
2023-04-01T04:32:26.630Z,7.34
2023-04-01T04:33:26.679Z,7.45
2023-04-01T04:34:26.827Z,7.57
2023-04-01T04:35:27.050Z,7.60
2023-04-01T04:36:27.191Z,7.59
2023-04-01T04:37:27.366Z,7.53
2023-04-01T04:38:27.478Z,7.40
2023-04-01T04:39:27.616Z,7.44
2023-04-01T04:40:27.747Z,7.48
2023-04-01T04:41:27.874Z,7.55
2023-04-01T04:42:28.019Z,7.66
2023-04-01T04:43:28.146Z,7.72
2023-04-01T04:44:28.272Z,7.65
2023-04-01T04:45:28.412Z,7.68
2023-04-01T04:46:28.709Z,7.77
2023-04-01T04:47:28.741Z,7.80
2023-04-01T04:48:28.842Z,7.72
2023-04-01T04:49:28.985Z,7.69
2023-04-01T04:50:29.127Z,7.60
2023-04-01T04:51:29.279Z,7.47
2023-04-01T04:52:29.403Z,7.44
2023-04-01T04:53:29.537Z,7.48
2023-04-01T04:54:29.678Z,7.51
2023-04-01T04:55:29.827Z,7.56
2023-04-01T04:56:29.974Z,7.62
2023-04-01T04:57:30.198Z,7.64
2023-04-01T04:58:30.278Z,7.56
2023-04-01T04:59:30.393Z,7.58
2023-04-01T05:00:30.488Z,7.63
2023-04-01T05:01:30.599Z,7.66
2023-04-01T05:02:30.750Z,7.67
2023-04-01T05:03:30.960Z,7.72
2023-04-01T05:04:30.964Z,7.77
2023-04-01T05:05:31.340Z,7.78
2023-04-01T05:06:31.176Z,7.78
2023-04-01T05:07:31.285Z,7.75
2023-04-01T05:08:31.405Z,7.64
2023-04-01T05:09:31.550Z,7.55
2023-04-01T05:10:31.779Z,7.53
2023-04-01T05:11:31.858Z,7.37
2023-04-01T05:12:32.005Z,7.25
2023-04-01T05:13:32.137Z,7.22
2023-04-01T05:14:32.254Z,7.24
2023-04-01T05:15:32.554Z,7.37
2023-04-01T05:16:32.589Z,7.46
2023-04-01T05:17:32.637Z,7.49
2023-04-01T05:18:32.714Z,7.38
2023-04-01T05:19:32.828Z,7.46
2023-04-01T05:20:32.947Z,7.37
2023-04-01T05:21:33.045Z,7.25
2023-04-01T05:22:33.160Z,7.22
2023-04-01T05:23:33.260Z,7.23
2023-04-01T05:24:33.381Z,7.28
2023-04-01T05:25:33.629Z,7.39
2023-04-01T05:26:33.643Z,7.50
2023-04-01T05:27:33.765Z,7.56
2023-04-01T05:28:33.855Z,7.62
2023-04-01T05:29:34.017Z,7.64
2023-04-01T05:30:34.169Z,7.68
2023-04-01T05:31:34.309Z,7.75
2023-04-01T05:32:34.459Z,7.83
2023-04-01T05:33:34.574Z,7.87
2023-04-01T05:34:34.732Z,7.84
2023-04-01T05:35:35.108Z,7.88
2023-04-01T05:36:34.985Z,7.94
2023-04-01T05:37:35.127Z,7.89
2023-04-01T05:38:35.255Z,7.92
2023-04-01T05:39:35.658Z,8.00
2023-04-01T05:40:35.533Z,8.05
2023-04-01T05:41:35.676Z,7.98
2023-04-01T05:42:36.914Z,7.96
2023-04-01T05:43:35.967Z,7.88
2023-04-01T05:44:36.109Z,7.80
2023-04-01T05:45:36.253Z,7.72
2023-04-01T05:46:36.501Z,7.72
2023-04-01T05:47:36.593Z,7.75
2023-04-01T05:48:36.659Z,7.77
2023-04-01T05:49:36.781Z,7.84
2023-04-01T05:50:36.899Z,7.88
2023-04-01T05:51:36.990Z,7.93
2023-04-01T05:52:37.117Z,7.99
2023-04-01T05:53:37.256Z,8.04
2023-04-01T05:54:37.392Z,8.10
2023-04-01T05:55:37.525Z,8.02
2023-04-01T05:56:37.652Z,8.06
2023-04-01T05:57:37.926Z,7.96
2023-04-01T05:58:37.973Z,8.01
2023-04-01T05:59:38.047Z,8.08
2023-04-01T06:00:38.152Z,7.94
2023-04-01T06:01:38.358Z,7.93
2023-04-01T06:02:38.520Z,7.94
2023-04-01T06:03:38.767Z,7.89
2023-04-01T06:04:38.747Z,7.83
2023-04-01T06:05:38.862Z,7.84
2023-04-01T06:06:39.000Z,7.87
2023-04-01T06:07:39.190Z,7.98
2023-04-01T06:08:39.330Z,8.03
2023-04-01T06:09:39.492Z,8.03
2023-04-01T06:10:39.619Z,8.05
2023-04-01T06:11:39.735Z,8.00
2023-04-01T06:12:39.834Z,8.05
2023-04-01T06:13:39.945Z,8.10
2023-04-01T06:14:40.059Z,8.17
2023-04-01T06:15:40.209Z,8.20
2023-04-01T06:16:40.444Z,8.25
2023-04-01T06:17:40.504Z,8.22
2023-04-01T06:18:40.618Z,8.14
2023-04-01T06:19:40.755Z,7.95
2023-04-01T06:20:40.898Z,8.04
2023-04-01T06:21:41.038Z,8.11
2023-04-01T06:22:41.182Z,8.04
2023-04-01T06:23:41.315Z,8.06
2023-04-01T06:24:41.466Z,8.14
2023-04-01T06:25:41.566Z,8.15
2023-04-01T06:26:41.717Z,7.94
2023-04-01T06:27:41.858Z,7.72
2023-04-01T06:28:41.973Z,7.76
2023-04-01T06:29:42.108Z,7.67
2023-04-01T06:30:42.187Z,7.76
2023-04-01T06:31:42.328Z,7.80
2023-04-01T06:32:42.457Z,7.81
2023-04-01T06:33:42.544Z,7.86
2023-04-01T06:34:42.684Z,7.91
2023-04-01T06:35:42.836Z,7.83
2023-04-01T06:36:42.893Z,7.87
2023-04-01T06:37:42.995Z,7.85
2023-04-01T06:38:43.096Z,7.87
2023-04-01T06:39:43.216Z,7.84
2023-04-01T06:40:43.325Z,7.74
2023-04-01T06:41:43.449Z,7.79
2023-04-01T06:42:43.576Z,7.76
2023-04-01T06:43:43.723Z,7.69
2023-04-01T06:44:43.844Z,7.70
2023-04-01T06:45:43.979Z,7.65
2023-04-01T06:46:44.029Z,7.70
2023-04-01T06:47:45.663Z,7.82
2023-04-01T06:48:44.296Z,7.91
2023-04-01T06:49:44.430Z,7.94
2023-04-01T06:50:44.555Z,7.95
2023-04-01T06:51:44.698Z,7.98
2023-04-01T06:52:44.804Z,7.98
2023-04-01T06:53:44.911Z,8.03
2023-04-01T06:54:45.006Z,8.07
2023-04-01T06:55:45.144Z,8.18
2023-04-01T06:56:45.326Z,8.28
2023-04-01T06:57:45.436Z,8.31
2023-04-01T06:58:45.596Z,8.26
2023-04-01T06:59:45.722Z,8.13
2023-04-01T07:00:45.858Z,8.05
2023-04-01T07:01:46.078Z,8.03
2023-04-01T07:02:46.209Z,7.88
2023-04-01T07:03:46.281Z,7.73
2023-04-01T07:04:46.494Z,7.67
2023-04-01T07:05:46.560Z,7.81
2023-04-01T07:06:46.711Z,7.96
2023-04-01T07:07:46.844Z,8.07
2023-04-01T07:08:47.013Z,8.13
2023-04-01T07:09:47.143Z,8.19
2023-04-01T07:10:47.286Z,8.20
2023-04-01T07:11:47.402Z,8.21
2023-04-01T07:12:47.509Z,8.24
2023-04-01T07:13:47.615Z,8.30
2023-04-01T07:14:47.867Z,8.37
2023-04-01T07:15:47.865Z,8.43
2023-04-01T07:16:48.044Z,8.42
2023-04-01T07:17:48.197Z,8.44
2023-04-01T07:18:48.284Z,8.48
2023-04-01T07:19:48.397Z,8.40
2023-04-01T07:20:48.506Z,8.43
2023-04-01T07:21:48.638Z,8.46
2023-04-01T07:22:48.732Z,8.49
2023-04-01T07:23:48.810Z,8.45
2023-04-01T07:24:48.895Z,8.43
2023-04-01T07:25:48.988Z,8.44
2023-04-01T07:26:49.048Z,8.54
2023-04-01T07:27:49.128Z,8.66
2023-04-01T07:28:49.212Z,8.74
2023-04-01T07:29:49.294Z,8.84
2023-04-01T07:30:49.365Z,8.86
2023-04-01T07:31:49.668Z,8.92
2023-04-01T07:32:49.559Z,8.97
2023-04-01T07:33:49.726Z,9.04
2023-04-01T07:34:49.828Z,9.17
2023-04-01T07:35:49.939Z,9.19
2023-04-01T07:36:50.023Z,9.09
2023-04-01T07:37:50.140Z,9.03
2023-04-01T07:38:50.300Z,8.92
2023-04-01T07:39:50.415Z,8.77
2023-04-01T07:40:50.524Z,8.69
2023-04-01T07:41:50.635Z,8.67
2023-04-01T07:42:50.761Z,8.56
2023-04-01T07:43:50.892Z,8.58
2023-04-01T07:44:50.993Z,8.51
2023-04-01T07:45:51.171Z,8.52
2023-04-01T07:46:51.283Z,8.42
2023-04-01T07:47:51.442Z,8.47
2023-04-01T07:48:51.570Z,8.57
2023-04-01T07:49:51.713Z,8.56
2023-04-01T07:50:53.149Z,8.54
2023-04-01T07:51:51.952Z,8.65
2023-04-01T07:52:52.063Z,8.74
2023-04-01T07:53:52.184Z,8.78
2023-04-01T07:54:52.338Z,8.73
2023-04-01T07:55:52.438Z,8.66
2023-04-01T07:56:52.587Z,8.66
2023-04-01T07:57:52.645Z,8.64
2023-04-01T07:58:52.749Z,8.76
2023-04-01T07:59:52.922Z,8.90
2023-04-01T08:00:53.073Z,8.99
2023-04-01T08:01:53.234Z,8.93
2023-04-01T08:02:53.578Z,8.91
2023-04-01T08:03:53.903Z,8.98
2023-04-01T08:04:53.843Z,8.97
2023-04-01T08:05:54.036Z,9.03
2023-04-01T08:06:54.346Z,9.04
2023-04-01T08:07:54.620Z,9.08
2023-04-01T08:08:54.873Z,9.16
2023-04-01T08:09:55.143Z,9.26
2023-04-01T08:10:55.396Z,9.42
2023-04-01T08:11:55.512Z,9.50
2023-04-01T08:12:55.695Z,9.49
2023-04-01T08:13:55.913Z,9.51
2023-04-01T08:14:56.117Z,9.49
2023-04-01T08:15:56.333Z,9.57
2023-04-01T08:16:56.496Z,9.55
2023-04-01T08:17:56.760Z,9.58
2023-04-01T08:18:56.882Z,9.59
2023-04-01T08:19:57.083Z,9.61
2023-04-01T08:20:57.320Z,9.69
2023-04-01T08:21:57.666Z,9.78
2023-04-01T08:22:57.910Z,9.78
2023-04-01T08:23:58.178Z,9.73
2023-04-01T08:24:58.325Z,9.68
2023-04-01T08:25:58.655Z,9.65
2023-04-01T08:26:59.712Z,9.54
2023-04-01T08:27:58.780Z,9.58
2023-04-01T08:28:58.855Z,9.62
2023-04-01T08:29:58.925Z,9.56
2023-04-01T08:30:59.036Z,9.53
2023-04-01T08:31:59.188Z,9.39
2023-04-01T08:32:59.290Z,9.40
2023-04-01T08:33:59.355Z,9.42
2023-04-01T08:34:59.463Z,9.41
2023-04-01T08:35:59.615Z,9.42
2023-04-01T08:36:59.701Z,9.37
2023-04-01T08:37:59.875Z,9.39
2023-04-01T08:39:00.005Z,9.48
2023-04-01T08:40:00.137Z,9.51
2023-04-01T08:41:00.270Z,9.55
2023-04-01T08:42:00.371Z,9.58
2023-04-01T08:43:00.491Z,9.51
2023-04-01T08:44:00.625Z,9.48
2023-04-01T08:45:01.119Z,9.48
2023-04-01T08:46:01.043Z,9.54
2023-04-01T08:47:01.036Z,9.67
2023-04-01T08:48:01.175Z,9.79
2023-04-01T08:49:01.234Z,9.69
2023-04-01T08:50:01.362Z,9.74
2023-04-01T08:51:01.457Z,9.78
2023-04-01T08:52:01.531Z,9.80
2023-04-01T08:53:01.613Z,9.79
2023-04-01T08:54:01.692Z,9.82
2023-04-01T08:55:01.816Z,9.79
2023-04-01T08:56:01.866Z,9.78
2023-04-01T08:57:02.024Z,9.82
2023-04-01T08:58:02.171Z,9.91
2023-04-01T08:59:02.379Z,9.90
2023-04-01T09:00:02.577Z,9.95
2023-04-01T09:01:02.664Z,9.92
2023-04-01T09:02:02.806Z,9.93
2023-04-01T09:03:02.909Z,9.96
2023-04-01T09:04:02.917Z,10.05
2023-04-01T09:05:03.004Z,10.09
2023-04-01T09:06:03.103Z,10.15
2023-04-01T09:07:03.235Z,10.16
2023-04-01T09:08:03.336Z,10.06
2023-04-01T09:09:03.447Z,9.89
2023-04-01T09:10:03.487Z,9.87
2023-04-01T09:11:03.570Z,9.90
2023-04-01T09:12:03.735Z,9.91
2023-04-01T09:13:03.753Z,9.94
2023-04-01T09:14:03.880Z,9.97
2023-04-01T09:15:04.002Z,10.02
2023-04-01T09:16:04.193Z,10.02
2023-04-01T09:17:04.298Z,10.05
2023-04-01T09:18:04.473Z,10.05
2023-04-01T09:19:04.596Z,10.10
2023-04-01T09:20:04.716Z,10.21
2023-04-01T09:21:04.821Z,10.22
2023-04-01T09:22:04.915Z,10.28
2023-04-01T09:23:05.000Z,10.19
2023-04-01T09:24:05.060Z,10.11
2023-04-01T09:25:05.141Z,10.00
2023-04-01T09:26:05.220Z,10.03
2023-04-01T09:27:05.294Z,9.99
2023-04-01T09:28:06.200Z,9.94
2023-04-01T09:29:05.474Z,9.98
2023-04-01T09:30:05.608Z,10.08
2023-04-01T09:31:05.722Z,10.14
2023-04-01T09:32:05.802Z,10.22
2023-04-01T09:33:05.958Z,10.26
2023-04-01T09:34:06.041Z,10.35
2023-04-01T09:35:06.147Z,10.44
2023-04-01T09:36:06.318Z,10.44
2023-04-01T09:37:06.334Z,10.42
2023-04-01T09:38:06.408Z,10.43
2023-04-01T09:39:06.468Z,10.45
2023-04-01T09:40:06.548Z,10.36
2023-04-01T09:41:06.637Z,10.34
2023-04-01T09:42:06.704Z,10.37
2023-04-01T09:43:06.797Z,10.35
2023-04-01T09:44:06.845Z,10.30
2023-04-01T09:45:06.926Z,10.34
2023-04-01T09:46:07.008Z,10.45
2023-04-01T09:47:07.062Z,10.45
2023-04-01T09:48:07.135Z,10.47
2023-04-01T09:49:07.182Z,10.51
2023-04-01T09:50:07.256Z,10.61
2023-04-01T09:51:07.399Z,10.59
2023-04-01T09:52:07.499Z,10.60
2023-04-01T09:53:07.610Z,10.63
2023-04-01T09:54:07.697Z,10.70
2023-04-01T09:55:07.773Z,10.74
2023-04-01T09:56:07.855Z,10.83
2023-04-01T09:57:07.962Z,10.89
2023-04-01T09:58:08.052Z,10.94
2023-04-01T09:59:08.149Z,11.03
2023-04-01T10:00:08.280Z,11.18
2023-04-01T10:01:08.362Z,11.28
2023-04-01T10:02:08.491Z,11.32
2023-04-01T10:03:08.553Z,11.34
2023-04-01T10:04:08.619Z,11.31
2023-04-01T10:05:08.746Z,11.34
2023-04-01T10:06:09.823Z,11.41
2023-04-01T10:07:08.827Z,11.47
2023-04-01T10:08:08.870Z,11.46
2023-04-01T10:09:08.908Z,11.46
2023-04-01T10:10:08.967Z,11.42
2023-04-01T10:11:08.993Z,11.41
2023-04-01T10:12:09.030Z,11.35
2023-04-01T10:13:09.088Z,11.37
2023-04-01T10:14:09.184Z,11.30
2023-04-01T10:15:09.222Z,11.31
2023-04-01T10:16:09.280Z,11.35
2023-04-01T10:17:09.323Z,11.43
2023-04-01T10:18:09.426Z,11.45
2023-04-01T10:19:09.484Z,11.50
2023-04-01T10:20:09.604Z,11.50
2023-04-01T10:21:09.704Z,11.57
2023-04-01T10:22:09.796Z,11.62
2023-04-01T10:23:09.881Z,11.71
2023-04-01T10:24:09.954Z,11.75
2023-04-01T10:25:10.072Z,11.75
2023-04-01T10:26:10.167Z,11.80
2023-04-01T10:27:10.272Z,11.72
2023-04-01T10:28:10.334Z,11.72
2023-04-01T10:29:10.408Z,11.72
2023-04-01T10:30:10.503Z,11.79
2023-04-01T10:31:10.563Z,11.88
2023-04-01T10:32:10.644Z,11.89
2023-04-01T10:33:10.725Z,11.97
2023-04-01T10:34:10.810Z,12.04
2023-04-01T10:35:10.854Z,12.09
2023-04-01T10:36:10.981Z,12.02
2023-04-01T10:37:10.928Z,12.12
2023-04-01T10:38:10.995Z,12.12
2023-04-01T10:39:11.100Z,12.12
2023-04-01T10:40:11.173Z,12.16
2023-04-01T10:41:11.274Z,12.22
2023-04-01T10:42:11.372Z,12.24
2023-04-01T10:43:11.489Z,12.25
2023-04-01T10:44:11.537Z,12.24
2023-04-01T10:45:11.634Z,12.30
2023-04-01T10:46:11.765Z,12.44
2023-04-01T10:47:11.758Z,12.52
2023-04-01T10:48:11.832Z,12.56
2023-04-01T10:49:11.880Z,12.57
2023-04-01T10:50:11.985Z,12.57
2023-04-01T10:51:12.038Z,12.62
2023-04-01T10:52:12.109Z,12.63
2023-04-01T10:53:12.166Z,12.62
2023-04-01T10:54:12.277Z,12.61
2023-04-01T10:55:12.357Z,12.72
2023-04-01T10:56:12.440Z,12.76
2023-04-01T10:57:12.516Z,12.79
2023-04-01T10:58:12.543Z,12.76
2023-04-01T10:59:12.573Z,12.83
2023-04-01T11:00:12.601Z,12.83
2023-04-01T11:01:12.711Z,12.87
2023-04-01T11:02:12.743Z,12.89
2023-04-01T11:03:12.880Z,12.82
2023-04-01T11:04:12.857Z,12.78
2023-04-01T11:05:12.923Z,12.85
2023-04-01T11:06:12.994Z,12.83
2023-04-01T11:07:13.198Z,12.88
2023-04-01T11:08:13.211Z,12.94
2023-04-01T11:09:13.303Z,12.99
2023-04-01T11:10:13.422Z,12.97
2023-04-01T11:11:13.508Z,12.87
2023-04-01T11:12:13.554Z,12.76
2023-04-01T11:13:13.625Z,12.65
2023-04-01T11:14:13.682Z,12.68
2023-04-01T11:15:13.782Z,12.73
2023-04-01T11:16:13.969Z,12.74
2023-04-01T11:17:13.973Z,12.67
2023-04-01T11:18:14.039Z,12.64
2023-04-01T11:19:14.149Z,12.69
2023-04-01T11:20:14.270Z,12.77
2023-04-01T11:21:14.321Z,12.74
2023-04-01T11:22:14.446Z,12.75
2023-04-01T11:23:14.416Z,12.74
2023-04-01T11:24:14.462Z,12.74
2023-04-01T11:25:14.515Z,12.75
2023-04-01T11:26:14.600Z,12.60
2023-04-01T11:27:14.713Z,12.52
2023-04-01T11:28:14.729Z,12.56
2023-04-01T11:29:14.806Z,12.60
2023-04-01T11:30:14.916Z,12.63
2023-04-01T11:31:15.078Z,12.65
2023-04-01T11:32:15.122Z,12.60
2023-04-01T11:33:15.226Z,12.62
2023-04-01T11:34:15.333Z,12.63
2023-04-01T11:35:15.404Z,12.59
2023-04-01T11:36:15.581Z,12.56
2023-04-01T11:37:15.566Z,12.53
2023-04-01T11:38:15.629Z,12.36
2023-04-01T11:39:15.736Z,12.33
2023-04-01T11:40:15.772Z,12.36
2023-04-01T11:41:15.836Z,12.42
2023-04-01T11:42:15.921Z,12.41
2023-04-01T11:43:26.211Z,12.42
2023-04-01T11:44:17.088Z,12.39
2023-04-01T11:45:16.140Z,12.42
2023-04-01T11:46:16.229Z,12.46
2023-04-01T11:47:16.214Z,12.45
2023-04-01T11:48:16.247Z,12.51
2023-04-01T11:49:16.294Z,12.48
2023-04-01T11:50:16.343Z,12.45
2023-04-01T11:51:16.385Z,12.39
2023-04-01T11:52:16.429Z,12.43
2023-04-01T11:53:16.459Z,12.37
2023-04-01T11:54:16.503Z,12.42
2023-04-01T11:55:16.565Z,12.46
2023-04-01T11:56:16.625Z,12.49
2023-04-01T11:57:16.749Z,12.47
2023-04-01T11:58:16.759Z,12.42
2023-04-01T11:59:16.843Z,12.41
2023-04-01T12:00:16.921Z,12.40
2023-04-01T12:01:17.025Z,12.35
2023-04-01T12:02:18.252Z,12.29
2023-04-01T12:03:17.413Z,12.24
2023-04-01T12:04:17.250Z,12.14
2023-04-01T12:05:17.268Z,12.07
2023-04-01T12:06:17.313Z,12.06
2023-04-01T12:07:17.354Z,12.04
2023-04-01T12:08:17.397Z,11.99
2023-04-01T12:09:17.460Z,11.87
2023-04-01T12:10:17.526Z,11.78
2023-04-01T12:11:17.592Z,11.76
2023-04-01T12:12:17.653Z,11.70
2023-04-01T12:13:17.718Z,11.67
2023-04-01T12:14:17.792Z,11.72
2023-04-01T12:15:17.841Z,11.71
2023-04-01T12:16:17.967Z,11.58
2023-04-01T12:17:17.987Z,11.58
2023-04-01T12:18:18.059Z,11.61
2023-04-01T12:19:18.111Z,11.62
2023-04-01T12:20:18.184Z,11.62
2023-04-01T12:21:18.222Z,11.65
2023-04-01T12:22:18.269Z,11.67
2023-04-01T12:23:18.325Z,11.65
2023-04-01T12:24:18.363Z,11.66
2023-04-01T12:25:18.396Z,11.75
2023-04-01T12:26:18.455Z,11.77
2023-04-01T12:27:18.493Z,11.78
2023-04-01T12:28:18.547Z,11.67
2023-04-01T12:29:18.609Z,11.57
2023-04-01T12:30:18.653Z,11.43
2023-04-01T12:31:18.717Z,11.45
2023-04-01T12:32:18.935Z,11.42
2023-04-01T12:33:18.849Z,11.47
2023-04-01T12:34:18.904Z,11.55
2023-04-01T12:35:18.978Z,11.53
2023-04-01T12:36:19.011Z,11.61
2023-04-01T12:37:19.048Z,11.49
2023-04-01T12:38:20.296Z,11.51
2023-04-01T12:39:19.214Z,11.61
2023-04-01T12:40:19.310Z,11.67
2023-04-01T12:41:19.432Z,11.75
2023-04-01T12:42:19.518Z,11.68
2023-04-01T12:43:19.602Z,11.59
2023-04-01T12:44:19.690Z,11.70
2023-04-01T12:45:19.804Z,11.71
2023-04-01T12:46:20.030Z,11.64
2023-04-01T12:47:20.011Z,11.62
2023-04-01T12:48:20.088Z,11.49
2023-04-01T12:49:20.172Z,11.42
2023-04-01T12:50:20.248Z,11.45
2023-04-01T12:51:20.327Z,11.45
2023-04-01T12:52:20.407Z,11.42
2023-04-01T12:53:20.499Z,11.45
2023-04-01T12:54:20.595Z,11.32
2023-04-01T12:55:20.701Z,11.26
2023-04-01T12:56:20.832Z,11.25
2023-04-01T12:57:20.945Z,11.26
2023-04-01T12:58:21.170Z,11.31
2023-04-01T12:59:21.314Z,11.21
2023-04-01T13:00:21.426Z,11.23
2023-04-01T13:01:21.542Z,11.26
2023-04-01T13:02:21.617Z,11.32
2023-04-01T13:03:21.765Z,11.35
2023-04-01T13:04:21.838Z,11.40
2023-04-01T13:05:21.870Z,11.48
2023-04-01T13:06:21.949Z,11.41
2023-04-01T13:07:22.051Z,11.34
2023-04-01T13:08:22.125Z,11.25
2023-04-01T13:09:22.274Z,11.16
2023-04-01T13:10:22.443Z,11.07
2023-04-01T13:11:22.554Z,11.11
2023-04-01T13:12:22.734Z,11.12